createdAt,value
2023-11-24T00:00:00.528Z,0.9
2023-11-24T00:10:00.358Z,1.0
2023-11-24T00:20:00.355Z,1.5
2023-11-24T00:30:00.563Z,1.6
2023-11-24T00:40:00.563Z,1.7
2023-11-24T00:50:00.430Z,1.9
2023-11-24T01:00:00.470Z,1.8
2023-11-24T01:10:00.586Z,1.7
2023-11-24T01:20:00.521Z,1.5
2023-11-24T01:30:00.337Z,1.5
2023-11-24T01:40:00.311Z,1.5
2023-11-24T01:50:00.326Z,1.5
2023-11-24T02:00:00.487Z,1.9
2023-11-24T02:10:00.332Z,2.2
2023-11-24T02:20:00.528Z,2.8
2023-11-24T02:30:00.583Z,3.1
2023-11-24T02:40:00.619Z,3.2
2023-11-24T02:50:00.485Z,3.3
2023-11-24T03:00:00.420Z,3.3
2023-11-24T03:10:00.347Z,3.3
2023-11-24T03:20:00.309Z,3.2
2023-11-24T03:30:00.540Z,3.2
2023-11-24T03:40:00.348Z,3.2
2023-11-24T03:50:00.269Z,3.2
2023-11-24T04:00:00.256Z,3.1
2023-11-24T04:10:00.451Z,3.1
2023-11-24T04:20:00.297Z,3.1
2023-11-24T04:30:00.294Z,3.3
2023-11-24T04:40:01.195Z,3.4
2023-11-24T04:50:00.844Z,3.6
2023-11-24T05:00:00.704Z,3.5
2023-11-24T05:10:01.933Z,3.7
2023-11-24T05:20:00.394Z,4.0
2023-11-24T05:30:00.451Z,4.2
2023-11-24T05:40:00.819Z,5.6
2023-11-24T05:50:00.339Z,6.8
2023-11-24T06:00:00.863Z,7.3
2023-11-24T06:10:00.534Z,7.5
2023-11-24T06:20:00.524Z,7.5
2023-11-24T06:30:00.287Z,7.3
2023-11-24T06:40:00.722Z,7.0
2023-11-24T06:50:00.865Z,6.9
2023-11-24T07:00:00.371Z,6.7
2023-11-24T07:10:00.529Z,6.4
2023-11-24T07:20:00.347Z,6.1
2023-11-24T07:30:00.499Z,5.9
2023-11-24T07:40:00.578Z,5.9
2023-11-24T07:50:00.498Z,5.9
2023-11-24T08:00:00.523Z,5.9
2023-11-24T08:10:00.367Z,6.2
2023-11-24T08:20:00.306Z,6.4
2023-11-24T08:30:00.278Z,6.7
2023-11-24T08:40:00.512Z,7.1
2023-11-24T08:50:01.053Z,7.6
2023-11-24T09:00:00.633Z,7.8
2023-11-24T09:10:00.447Z,7.8
2023-11-24T09:20:00.267Z,8.4
2023-11-24T09:30:00.581Z,8.1
2023-11-24T09:40:00.388Z,7.6
2023-11-24T09:50:00.332Z,7.1
2023-11-24T10:00:00.423Z,6.6
2023-11-24T10:10:00.317Z,6.9
2023-11-24T10:20:00.322Z,6.9
2023-11-24T10:30:00.244Z,6.6
2023-11-24T10:40:00.356Z,6.5
2023-11-24T10:50:00.295Z,6.6
2023-11-24T11:00:00.333Z,6.5
2023-11-24T11:10:00.534Z,6.3
2023-11-24T11:20:00.680Z,6.4
2023-11-24T11:30:00.843Z,6.2
2023-11-24T11:40:00.831Z,6.2
2023-11-24T11:50:00.315Z,6.3
2023-11-24T12:00:00.389Z,6.2
2023-11-24T12:10:00.365Z,6.4
2023-11-24T12:20:00.376Z,6.9
2023-11-24T12:30:00.319Z,6.6
2023-11-24T12:40:00.378Z,6.4
2023-11-24T12:50:00.358Z,6.2
2023-11-24T13:00:00.695Z,6.0
2023-11-24T13:10:00.628Z,6.1
2023-11-24T13:20:00.577Z,6.1
2023-11-24T13:30:00.530Z,6.0
2023-11-24T13:40:00.405Z,5.8
2023-11-24T13:50:00.348Z,5.5
2023-11-24T14:00:00.423Z,5.4
2023-11-24T14:10:01.077Z,5.1
2023-11-24T14:20:00.478Z,4.8
2023-11-24T14:30:00.626Z,4.8
2023-11-24T14:40:00.368Z,4.5
2023-11-24T14:50:00.323Z,4.3
2023-11-24T15:00:00.238Z,3.9
2023-11-24T15:10:00.615Z,3.9
2023-11-24T15:20:00.247Z,3.6
2023-11-24T15:30:00.475Z,3.2
2023-11-24T15:40:00.398Z,3.3
2023-11-24T15:50:00.418Z,3.1
2023-11-24T16:00:00.544Z,3.0
2023-11-24T16:10:00.370Z,3.0
2023-11-24T16:20:00.358Z,3.1
2023-11-24T16:30:00.685Z,3.3
2023-11-24T16:40:01.455Z,2.9
2023-11-24T16:50:00.532Z,2.8
2023-11-24T17:00:00.563Z,3.3
2023-11-24T17:10:00.377Z,3.9
2023-11-24T17:20:00.564Z,4.0
2023-11-24T17:30:00.539Z,3.8
2023-11-24T17:40:00.487Z,3.8
2023-11-24T17:50:01.134Z,3.6
2023-11-24T18:00:00.426Z,3.5
2023-11-24T18:10:00.377Z,3.3
2023-11-24T18:20:00.460Z,3.2
2023-11-24T18:30:00.583Z,3.4
2023-11-24T18:40:03.746Z,3.6
2023-11-24T18:50:00.315Z,3.6
2023-11-24T19:00:00.709Z,3.8
2023-11-24T19:10:00.397Z,3.6
2023-11-24T19:20:00.523Z,3.6
2023-11-24T19:30:00.493Z,3.5
2023-11-24T19:40:00.591Z,3.6
2023-11-24T19:50:00.431Z,3.7
2023-11-24T20:00:00.572Z,3.7
2023-11-24T20:10:00.331Z,3.7
2023-11-24T20:20:00.428Z,3.6
2023-11-24T20:30:00.548Z,3.3
2023-11-24T20:40:00.698Z,3.2
2023-11-24T20:50:00.422Z,3.4
2023-11-24T21:00:00.264Z,3.5
2023-11-24T21:10:00.531Z,3.6
2023-11-24T21:20:00.268Z,3.6
2023-11-24T21:30:00.382Z,3.3
2023-11-24T21:40:00.351Z,2.9
2023-11-24T21:50:00.257Z,2.8
2023-11-24T22:00:00.752Z,3.1
2023-11-24T22:10:00.546Z,3.2
2023-11-24T22:20:00.376Z,3.2
2023-11-24T22:30:04.613Z,3.3
2023-11-24T22:40:00.529Z,3.2
2023-11-24T22:50:00.316Z,2.8
2023-11-24T23:00:00.590Z,2.4
2023-11-24T23:10:00.335Z,2.4
2023-11-24T23:20:00.350Z,2.4
2023-11-24T23:30:00.701Z,2.4
2023-11-24T23:40:00.387Z,2.2
2023-11-24T23:50:00.272Z,2.0
